createdAt,value
2022-11-05T00:02:53.887Z,11.40
2022-11-05T00:06:15.018Z,10.25
2022-11-05T00:09:31.079Z,10.63
2022-11-05T00:12:52.114Z,8.93
2022-11-05T00:16:13.539Z,9.48
2022-11-05T00:19:16.840Z,8.53
2022-11-05T00:22:38.274Z,5.63
2022-11-05T00:25:43.003Z,7.30
2022-11-05T00:28:48.298Z,10.77
2022-11-05T00:31:52.124Z,8.30
2022-11-05T00:34:56.191Z,8.55
2022-11-05T00:37:59.907Z,8.48
2022-11-05T00:41:05.258Z,7.25
2022-11-05T00:44:26.304Z,10.50
2022-11-05T00:47:48.398Z,9.35
2022-11-05T00:50:51.987Z,5.83
2022-11-05T00:53:55.746Z,6.15
2022-11-05T00:57:04.486Z,6.65
2022-11-05T01:00:10.369Z,6.32
2022-11-05T01:03:16.854Z,5.07
2022-11-05T01:06:20.634Z,5.83
2022-11-05T01:09:24.027Z,4.85
2022-11-05T01:12:29.061Z,6.03
2022-11-05T01:15:32.346Z,4.22
2022-11-05T01:18:38.812Z,8.32
2022-11-05T01:21:42.102Z,5.83
2022-11-05T01:24:45.683Z,5.63
2022-11-05T01:27:51.022Z,4.90
2022-11-05T01:30:57.286Z,4.85
2022-11-05T01:34:01.835Z,6.15
2022-11-05T01:37:05.900Z,4.50
2022-11-05T01:40:12.777Z,8.65
2022-11-05T01:43:20.523Z,5.28
2022-11-05T01:46:32.582Z,3.72
2022-11-05T01:49:36.530Z,4.75
2022-11-05T01:52:40.458Z,5.53
2022-11-05T01:55:52.614Z,3.65
2022-11-05T01:59:04.352Z,4.13
2022-11-05T02:02:09.846Z,3.60
2022-11-05T02:05:15.884Z,4.13
2022-11-05T02:08:35.318Z,4.77
2022-11-05T02:11:38.608Z,3.83
2022-11-05T02:14:43.465Z,4.65
2022-11-05T02:18:07.346Z,4.55
2022-11-05T02:21:56.511Z,5.07
2022-11-05T02:25:47.909Z,5.27
2022-11-05T02:29:28.352Z,3.35
2022-11-05T02:32:58.956Z,4.05
2022-11-05T02:36:24.175Z,4.75
2022-11-05T02:39:43.354Z,4.78
2022-11-05T02:43:02.458Z,4.03
2022-11-05T02:46:28.894Z,4.03
2022-11-05T02:49:49.567Z,3.60
2022-11-05T02:53:02.254Z,3.47
2022-11-05T02:56:15.334Z,7.25
2022-11-05T02:59:18.627Z,3.77
2022-11-05T03:02:22.416Z,5.25
2022-11-05T03:05:41.621Z,5.22
2022-11-05T03:09:19.354Z,3.13
2022-11-05T03:12:35.351Z,5.13
2022-11-05T03:15:57.603Z,4.37
2022-11-05T03:19:12.985Z,3.80
2022-11-05T03:22:27.064Z,3.40
2022-11-05T03:25:34.207Z,3.10
2022-11-05T03:28:44.511Z,3.17
2022-11-05T03:31:51.499Z,2.53
2022-11-05T03:35:05.797Z,3.17
2022-11-05T03:38:18.106Z,3.45
2022-11-05T03:41:26.021Z,3.55
2022-11-05T03:44:37.557Z,4.85
2022-11-05T03:47:45.632Z,3.80
2022-11-05T03:51:01.965Z,3.78
2022-11-05T03:54:08.031Z,3.95
2022-11-05T03:57:20.696Z,2.47
2022-11-05T04:00:24.605Z,2.45
2022-11-05T04:03:27.931Z,3.10
2022-11-05T04:06:49.383Z,2.25
2022-11-05T04:10:11.506Z,3.83
2022-11-05T04:13:27.746Z,2.63
2022-11-05T04:16:48.652Z,2.92
2022-11-05T04:20:10.195Z,3.10
2022-11-05T04:23:31.498Z,2.28
2022-11-05T04:26:37.360Z,2.50
2022-11-05T04:29:58.411Z,2.65
2022-11-05T04:33:05.938Z,2.83
2022-11-05T04:36:09.921Z,3.43
2022-11-05T04:39:13.647Z,2.50
2022-11-05T04:42:18.723Z,2.83
2022-11-05T04:45:22.562Z,3.40
2022-11-05T04:48:25.780Z,2.42
2022-11-05T04:51:29.697Z,2.60
2022-11-05T04:54:33.113Z,3.17
2022-11-05T04:57:38.678Z,3.85
2022-11-05T05:00:42.202Z,3.47
2022-11-05T05:03:49.231Z,2.78
2022-11-05T05:06:52.746Z,5.27
2022-11-05T05:09:56.569Z,2.28
2022-11-05T05:13:01.361Z,2.50
2022-11-05T05:16:08.165Z,2.92
2022-11-05T05:19:11.680Z,3.33
2022-11-05T05:22:14.389Z,3.13
2022-11-05T05:25:17.769Z,3.28
2022-11-05T05:28:22.863Z,3.10
2022-11-05T05:31:26.387Z,2.47
2022-11-05T05:34:29.954Z,2.90
2022-11-05T05:37:33.326Z,3.60
2022-11-05T05:40:37.123Z,4.88
2022-11-05T05:43:42.348Z,2.13
2022-11-05T05:46:46.030Z,2.38
2022-11-05T05:49:49.358Z,2.97
2022-11-05T05:52:52.894Z,3.27
2022-11-05T05:55:57.006Z,4.25
2022-11-05T05:59:02.017Z,2.22
2022-11-05T06:02:05.592Z,2.45
2022-11-05T06:05:10.036Z,2.92
2022-11-05T06:08:13.293Z,3.00
2022-11-05T06:11:17.375Z,5.03
2022-11-05T06:14:22.122Z,4.10
2022-11-05T06:17:26.019Z,2.58
2022-11-05T06:20:29.207Z,2.90
2022-11-05T06:23:34.399Z,2.73
2022-11-05T06:26:42.759Z,3.17
2022-11-05T06:29:47.776Z,2.78
2022-11-05T06:32:51.608Z,2.85
2022-11-05T06:35:56.084Z,3.67
2022-11-05T06:38:59.455Z,1.93
2022-11-05T06:42:17.789Z,1.90
2022-11-05T06:45:23.252Z,2.00
2022-11-05T06:48:26.715Z,2.35
2022-11-05T06:51:30.263Z,2.05
2022-11-05T06:54:33.876Z,2.43
2022-11-05T06:57:39.725Z,2.28
2022-11-05T07:00:44.805Z,2.00
2022-11-05T07:03:49.011Z,2.55
2022-11-05T07:06:52.547Z,2.55
2022-11-05T07:09:55.849Z,2.53
2022-11-05T07:13:02.490Z,3.13
2022-11-05T07:16:11.476Z,1.77
2022-11-05T07:19:14.985Z,2.25
2022-11-05T07:22:18.455Z,3.22
2022-11-05T07:25:22.671Z,1.83
2022-11-05T07:28:26.815Z,2.47
2022-11-05T07:31:33.096Z,2.13
2022-11-05T07:34:36.478Z,3.45
2022-11-05T07:37:45.113Z,2.58
2022-11-05T07:40:48.543Z,1.63
2022-11-05T07:43:52.217Z,1.73
2022-11-05T07:46:57.031Z,2.42
2022-11-05T07:50:00.778Z,2.97
2022-11-05T07:53:07.115Z,2.42
2022-11-05T07:56:12.127Z,1.63
2022-11-05T07:59:15.485Z,2.67
2022-11-05T08:02:20.676Z,1.75
2022-11-05T08:05:24.136Z,4.50
2022-11-05T08:08:27.683Z,1.85
2022-11-05T08:11:31.029Z,2.33
2022-11-05T08:14:34.562Z,1.98
2022-11-05T08:17:39.421Z,2.00
2022-11-05T08:20:45.195Z,2.00
2022-11-05T08:23:48.540Z,2.55
2022-11-05T08:26:52.077Z,1.63
2022-11-05T08:29:55.374Z,2.30
2022-11-05T08:33:02.785Z,1.98
2022-11-05T08:36:06.921Z,2.10
2022-11-05T08:39:15.834Z,1.50
2022-11-05T08:42:20.161Z,1.47
2022-11-05T08:45:24.718Z,1.67
2022-11-05T08:48:29.729Z,1.50
2022-11-05T08:51:33.414Z,1.90
2022-11-05T08:54:37.297Z,1.85
2022-11-05T08:57:40.719Z,3.20
2022-11-05T09:00:47.679Z,4.53
2022-11-05T09:03:54.261Z,2.03
2022-11-05T09:06:57.441Z,2.63
2022-11-05T09:10:01.128Z,2.00
2022-11-05T09:13:05.312Z,2.33
2022-11-05T09:16:20.538Z,2.08
2022-11-05T09:19:25.199Z,2.83
2022-11-05T09:22:28.709Z,2.13
2022-11-05T09:25:32.979Z,2.50
2022-11-05T09:28:36.567Z,2.43
2022-11-05T09:31:42.131Z,4.85
2022-11-05T09:34:48.941Z,2.53
2022-11-05T09:37:54.549Z,1.85
2022-11-05T09:41:06.005Z,5.38
2022-11-05T09:44:17.549Z,1.90
2022-11-05T09:47:28.232Z,4.95
2022-11-05T09:50:40.133Z,1.88
2022-11-05T09:53:47.253Z,3.03
2022-11-05T09:56:50.676Z,3.30
2022-11-05T09:59:59.527Z,2.40
2022-11-05T10:03:09.391Z,1.75
2022-11-05T10:06:21.174Z,2.60
2022-11-05T10:09:31.156Z,2.50
2022-11-05T10:12:45.165Z,1.90
2022-11-05T10:16:01.071Z,1.97
2022-11-05T10:19:10.874Z,1.95
2022-11-05T10:22:19.695Z,2.97
2022-11-05T10:25:28.618Z,2.33
2022-11-05T10:28:35.327Z,2.22
2022-11-05T10:31:39.240Z,2.13
2022-11-05T10:34:43.779Z,1.95
2022-11-05T10:37:49.647Z,2.17
2022-11-05T10:41:09.629Z,3.72
2022-11-05T10:44:31.692Z,2.38
2022-11-05T10:47:59.219Z,2.80
2022-11-05T10:51:03.019Z,3.55
2022-11-05T10:54:20.359Z,2.47
2022-11-05T10:57:35.292Z,2.38
2022-11-05T11:00:40.096Z,1.65
2022-11-05T11:03:47.783Z,2.63
2022-11-05T11:06:54.989Z,2.58
2022-11-05T11:10:03.981Z,2.40
2022-11-05T11:13:20.716Z,2.10
2022-11-05T11:16:27.368Z,2.40
2022-11-05T11:19:34.252Z,1.97
2022-11-05T11:22:37.863Z,4.82
2022-11-05T11:25:48.993Z,1.80
2022-11-05T11:29:00.602Z,2.88
2022-11-05T11:32:04.017Z,2.53
2022-11-05T11:35:19.674Z,3.03
2022-11-05T11:38:26.236Z,2.20
2022-11-05T11:41:36.050Z,1.40
2022-11-05T11:44:45.662Z,2.00
2022-11-05T11:47:51.171Z,1.92
2022-11-05T11:50:54.774Z,3.83
2022-11-05T11:54:00.946Z,1.80
2022-11-05T11:57:23.301Z,1.52
2022-11-05T12:00:27.161Z,2.08
2022-11-05T12:03:41.164Z,1.88
2022-11-05T12:06:56.449Z,2.60
2022-11-05T12:10:28.040Z,3.83
2022-11-05T12:13:59.679Z,1.55
2022-11-05T12:17:20.798Z,1.70
2022-11-05T12:20:59.712Z,3.05
2022-11-05T12:24:30.693Z,1.80
2022-11-05T12:27:58.668Z,4.38
2022-11-05T12:31:21.053Z,2.75
2022-11-05T12:34:46.013Z,2.40
2022-11-05T12:37:59.887Z,2.20
2022-11-05T12:41:20.283Z,2.80
2022-11-05T12:44:53.062Z,2.78
2022-11-05T12:48:35.793Z,4.32
2022-11-05T12:52:05.245Z,2.97
2022-11-05T12:55:17.619Z,2.10
2022-11-05T12:58:29.318Z,2.80
2022-11-05T13:01:40.889Z,4.45
2022-11-05T13:04:54.554Z,3.03
2022-11-05T13:08:04.688Z,5.03
2022-11-05T13:11:20.917Z,3.38
2022-11-05T13:14:31.860Z,3.07
2022-11-05T13:17:54.666Z,2.45
2022-11-05T13:21:06.524Z,2.30
2022-11-05T13:24:20.870Z,3.70
2022-11-05T13:27:49.057Z,5.10
2022-11-05T13:30:57.303Z,3.70
2022-11-05T13:34:10.739Z,2.50
2022-11-05T13:37:43.161Z,13.35
2022-11-05T13:41:15.763Z,4.65
2022-11-05T13:45:04.296Z,4.47
2022-11-05T13:49:01.228Z,3.70
2022-11-05T13:52:33.725Z,4.38
2022-11-05T13:56:02.554Z,4.75
2022-11-05T13:59:52.054Z,5.82
2022-11-05T14:03:02.814Z,5.07
2022-11-05T14:06:09.920Z,6.57
2022-11-05T14:09:27.880Z,6.47
2022-11-05T14:12:36.949Z,4.05
2022-11-05T14:15:40.712Z,3.97
2022-11-05T14:18:47.764Z,5.18
2022-11-05T14:21:53.429Z,4.80
2022-11-05T14:24:58.783Z,6.63
2022-11-05T14:28:02.423Z,4.55
2022-11-05T14:31:40.995Z,4.10
2022-11-05T14:34:54.918Z,3.03
2022-11-05T14:38:00.775Z,4.33
2022-11-05T14:41:06.761Z,3.55
2022-11-05T14:44:13.341Z,6.43
2022-11-05T14:47:25.932Z,5.22
2022-11-05T14:50:38.585Z,2.83
2022-11-05T14:53:42.288Z,3.93
2022-11-05T14:56:56.350Z,4.32
2022-11-05T15:00:00.951Z,3.25
2022-11-05T15:03:47.442Z,2.85
2022-11-05T15:07:34.709Z,2.55
2022-11-05T15:10:40.220Z,3.53
2022-11-05T15:14:04.883Z,3.92
2022-11-05T15:17:22.429Z,3.13
2022-11-05T15:20:40.261Z,4.07
2022-11-05T15:23:47.110Z,4.18
2022-11-05T15:27:03.770Z,2.33
2022-11-05T15:30:18.150Z,2.92
2022-11-05T15:33:23.202Z,2.97
2022-11-05T15:36:30.459Z,5.13
2022-11-05T15:39:43.215Z,3.20
2022-11-05T15:42:46.635Z,2.37
2022-11-05T15:46:08.177Z,2.95
2022-11-05T15:49:11.954Z,4.88
2022-11-05T15:52:18.398Z,4.93
2022-11-05T15:55:25.129Z,5.55
2022-11-05T15:58:29.154Z,4.30
2022-11-05T16:01:38.199Z,4.43
2022-11-05T16:04:48.470Z,5.68
2022-11-05T16:07:52.324Z,5.50
2022-11-05T16:11:00.023Z,5.38
2022-11-05T16:14:18.566Z,7.17
2022-11-05T16:17:27.128Z,4.88
2022-11-05T16:20:34.111Z,3.33
2022-11-05T16:23:45.766Z,4.90
2022-11-05T16:27:04.204Z,5.88
2022-11-05T16:30:19.521Z,4.47
2022-11-05T16:33:26.369Z,4.88
2022-11-05T16:36:33.669Z,4.97
2022-11-05T16:39:37.302Z,6.75
2022-11-05T16:42:42.214Z,6.03
2022-11-05T16:45:45.710Z,6.30
2022-11-05T16:48:51.060Z,4.85
2022-11-05T16:51:54.271Z,5.00
2022-11-05T16:54:57.867Z,6.88
2022-11-05T16:58:01.850Z,4.55
2022-11-05T17:01:12.449Z,2.87
2022-11-05T17:04:17.285Z,29.55
2022-11-05T17:07:21.078Z,131.13
2022-11-05T17:10:27.236Z,93.13
2022-11-05T17:13:30.869Z,44.57
2022-11-05T17:16:34.379Z,41.25
2022-11-05T17:19:42.409Z,30.60
2022-11-05T17:22:46.198Z,33.22
2022-11-05T17:25:52.827Z,28.17
2022-11-05T17:28:56.113Z,30.90
2022-11-05T17:31:59.760Z,35.15
2022-11-05T17:35:05.115Z,34.28
2022-11-05T17:38:10.976Z,33.58
2022-11-05T17:41:17.088Z,32.67
2022-11-05T17:44:20.520Z,28.27
2022-11-05T17:47:24.699Z,22.95
2022-11-05T17:50:48.623Z,28.80
2022-11-05T17:53:52.731Z,25.63
2022-11-05T17:56:56.263Z,23.52
2022-11-05T17:59:59.626Z,21.30
2022-11-05T18:03:03.295Z,25.60
2022-11-05T18:06:08.562Z,21.02
2022-11-05T18:09:13.976Z,21.20
2022-11-05T18:12:17.465Z,26.30
2022-11-05T18:15:21.631Z,24.00
2022-11-05T18:18:25.216Z,19.63
2022-11-05T18:21:30.091Z,22.08
2022-11-05T18:24:33.669Z,20.33
2022-11-05T18:27:37.431Z,19.80
2022-11-05T18:30:40.739Z,18.53
2022-11-05T18:33:44.830Z,24.20
2022-11-05T18:36:55.021Z,21.70
2022-11-05T18:39:59.788Z,19.33
2022-11-05T18:43:03.418Z,23.15
2022-11-05T18:46:07.664Z,18.23
2022-11-05T18:49:12.908Z,16.25
2022-11-05T18:52:18.272Z,16.83
2022-11-05T18:55:22.042Z,16.98
2022-11-05T18:58:25.717Z,20.15
2022-11-05T19:01:30.863Z,15.87
2022-11-05T19:04:36.601Z,16.60
2022-11-05T19:07:41.462Z,17.63
2022-11-05T19:10:49.618Z,19.95
2022-11-05T19:13:53.245Z,18.83
2022-11-05T19:16:56.913Z,18.77
2022-11-05T19:20:00.323Z,12.65
2022-11-05T19:23:07.947Z,11.00
2022-11-05T19:26:15.568Z,13.23
2022-11-05T19:29:19.364Z,13.38
2022-11-05T19:32:22.798Z,14.63
2022-11-05T19:35:26.767Z,17.52
2022-11-05T19:38:31.424Z,13.65
2022-11-05T19:41:35.172Z,13.48
2022-11-05T19:44:38.993Z,9.95
2022-11-05T19:47:42.494Z,14.93
2022-11-05T19:50:45.963Z,11.35
2022-11-05T19:53:52.775Z,15.18
2022-11-05T19:56:56.107Z,12.02
2022-11-05T19:59:59.614Z,9.73
2022-11-05T20:03:03.421Z,15.43
2022-11-05T20:06:10.121Z,7.50
2022-11-05T20:09:23.552Z,9.27
2022-11-05T20:12:27.162Z,9.50
2022-11-05T20:15:30.441Z,10.55
2022-11-05T20:18:34.510Z,9.77
2022-11-05T20:21:38.272Z,7.50
2022-11-05T20:24:43.391Z,7.22
2022-11-05T20:27:46.689Z,10.88
2022-11-05T20:30:50.292Z,8.45
2022-11-05T20:33:54.463Z,10.97
2022-11-05T20:36:58.120Z,12.77
2022-11-05T20:40:03.087Z,7.35
2022-11-05T20:43:06.754Z,10.85
2022-11-05T20:46:14.149Z,7.32
2022-11-05T20:49:24.005Z,6.80
2022-11-05T20:52:29.457Z,5.47
2022-11-05T20:55:40.937Z,6.93
2022-11-05T20:58:44.238Z,8.77
2022-11-05T21:01:48.055Z,7.38
2022-11-05T21:04:51.995Z,6.83
2022-11-05T21:07:55.739Z,7.55
2022-11-05T21:11:01.569Z,6.70
2022-11-05T21:14:05.205Z,8.82
2022-11-05T21:17:10.335Z,7.53
2022-11-05T21:20:14.001Z,14.37
2022-11-05T21:23:18.431Z,10.93
2022-11-05T21:26:23.424Z,11.93
2022-11-05T21:29:26.870Z,7.03
2022-11-05T21:32:30.575Z,9.27
2022-11-05T21:35:34.388Z,7.87
2022-11-05T21:38:38.862Z,7.40
2022-11-05T21:41:43.756Z,6.70
2022-11-05T21:44:47.459Z,9.10
2022-11-05T21:47:51.169Z,9.77
2022-11-05T21:51:12.429Z,5.20
2022-11-05T21:54:33.567Z,6.63
2022-11-05T21:57:56.659Z,6.22
2022-11-05T22:01:02.397Z,5.97
2022-11-05T22:04:06.243Z,8.80
2022-11-05T22:07:13.967Z,4.70
2022-11-05T22:10:17.318Z,7.32
2022-11-05T22:13:22.153Z,7.18
2022-11-05T22:16:25.836Z,6.03
2022-11-05T22:19:30.640Z,5.57
2022-11-05T22:22:35.242Z,4.67
2022-11-05T22:25:38.796Z,8.50
2022-11-05T22:28:43.857Z,5.30
2022-11-05T22:31:47.384Z,5.45
2022-11-05T22:34:50.907Z,5.75
2022-11-05T22:37:54.201Z,6.47
2022-11-05T22:40:58.095Z,5.32
2022-11-05T22:44:03.566Z,4.43
2022-11-05T22:47:08.137Z,6.13
2022-11-05T22:50:12.758Z,6.35
2022-11-05T22:53:16.346Z,4.20
2022-11-05T22:56:22.755Z,4.95
2022-11-05T22:59:27.764Z,4.68
2022-11-05T23:02:31.177Z,6.43
2022-11-05T23:05:34.668Z,4.90
2022-11-05T23:08:55.510Z,6.03
2022-11-05T23:11:59.338Z,4.25
2022-11-05T23:15:07.913Z,5.97
2022-11-05T23:18:28.777Z,5.05
2022-11-05T23:21:49.755Z,4.80
2022-11-05T23:24:53.543Z,7.50
2022-11-05T23:27:57.183Z,3.90
2022-11-05T23:31:19.509Z,5.93
2022-11-05T23:34:22.909Z,5.32
2022-11-05T23:37:47.547Z,4.53
2022-11-05T23:41:08.450Z,6.70
2022-11-05T23:44:29.992Z,3.75
2022-11-05T23:47:52.261Z,3.80
2022-11-05T23:51:02.827Z,4.68
2022-11-05T23:54:06.279Z,7.50
2022-11-05T23:57:09.789Z,3.97
